Time;durP1;ratioP1;P1;durP2;ratioP2;P2;SDS_P1;SDS_P2;PMS_P1;PMS_P2;Temp;Humidity;BMP_temperature;BMP_pressure;BME280_temperature;BME280_humidity;BME280_pressure;Samples;Min_cycle;Max_cycle;Signal;HPM_P1;HPM_P2
2021/01/24 00:01:50;;;;;;;35.08;17.73;;;;;;;3.12;74.40;99439.53;5076313;28;20036;-66
2021/01/24 00:04:16;;;;;;;33.58;16.20;;;;;;;3.13;74.05;99449.16;5086300;28;20097;-66
2021/01/24 00:06:41;;;;;;;31.75;16.70;;;;;;;3.13;74.17;99446.50;5073753;28;20031;-65
2021/01/24 00:09:07;;;;;;;33.42;16.45;;;;;;;3.12;74.07;99426.28;5082276;28;20139;-67
2021/01/24 00:11:32;;;;;;;35.22;17.15;;;;;;;3.12;74.39;99432.44;5081053;28;20115;-66
2021/01/24 00:13:57;;;;;;;28.52;16.58;;;;;;;3.00;74.40;99415.47;5075268;28;20035;-66
2021/01/24 00:16:24;;;;;;;30.45;15.68;;;;;;;3.12;73.60;99428.94;5086250;28;20067;-62
2021/01/24 00:18:49;;;;;;;31.38;16.45;;;;;;;3.10;74.00;99429.03;5075285;28;20502;-66
2021/01/24 00:21:15;;;;;;;30.75;16.42;;;;;;;3.06;74.22;99424.00;5081431;28;20093;-66
2021/01/24 00:23:40;;;;;;;28.25;14.90;;;;;;;3.06;73.70;99426.66;5082160;28;20114;-66
2021/01/24 00:26:07;;;;;;;34.22;15.80;;;;;;;2.70;74.17;99366.00;5073231;28;20043;-66
2021/01/24 00:28:33;;;;;;;33.72;16.27;;;;;;;2.97;74.37;99423.59;5086278;28;20039;-67
2021/01/24 00:30:59;;;;;;;32.40;16.48;;;;;;;3.04;74.59;99424.09;5076294;28;20032;-67
2021/01/24 00:33:24;;;;;;;28.63;15.38;;;;;;;3.03;74.38;99438.28;5079682;28;20052;-66
2021/01/24 00:35:50;;;;;;;31.05;16.13;;;;;;;3.04;74.32;99423.22;5082263;28;20032;-68
2021/01/24 00:38:15;;;;;;;35.63;17.08;;;;;;;3.05;74.27;99422.28;5072824;28;20060;-67
2021/01/24 00:40:41;;;;;;;33.50;17.10;;;;;;;3.06;74.39;99426.66;5085142;28;20028;-67
2021/01/24 00:43:06;;;;;;;33.35;16.25;;;;;;;3.11;74.08;99419.28;5069301;28;20045;-67
2021/01/24 00:45:31;;;;;;;30.92;16.02;;;;;;;3.10;74.11;99430.81;5062710;28;20074;-67
2021/01/24 00:47:57;;;;;;;37.25;18.60;;;;;;;3.00;73.94;99402.25;5079481;28;20114;-66
2021/01/24 00:50:22;;;;;;;32.33;16.33;;;;;;;3.10;73.72;99417.59;5077177;28;20513;-68
2021/01/24 00:52:48;;;;;;;32.45;16.98;;;;;;;2.98;74.04;99401.50;5087959;28;20388;-66
2021/01/24 00:55:13;;;;;;;36.25;17.00;;;;;;;3.13;74.06;99422.72;5082576;28;20032;-67
2021/01/24 00:57:39;;;;;;;31.08;15.55;;;;;;;2.96;74.08;99384.84;5081212;28;20115;-67
2021/01/24 01:00:06;;;;;;;30.85;14.38;;;;;;;3.18;73.82;99422.47;5089092;28;20058;-68
2021/01/24 01:02:31;;;;;;;35.28;16.42;;;;;;;3.03;73.94;99390.66;5076078;28;20081;-66
2021/01/24 01:04:57;;;;;;;31.45;15.63;;;;;;;3.17;74.40;99429.56;5086813;28;20492;-67
2021/01/24 01:07:22;;;;;;;30.17;15.75;;;;;;;3.19;74.10;99417.09;5083029;28;20110;-67
2021/01/24 01:09:48;;;;;;;34.03;17.40;;;;;;;3.19;73.79;99419.75;5079966;28;20119;-68
2021/01/24 01:12:14;;;;;;;30.67;16.58;;;;;;;3.18;73.95;99425.97;5089203;28;20487;-67
2021/01/24 01:14:40;;;;;;;31.98;16.73;;;;;;;3.14;74.08;99411.22;5076601;28;20031;-67
2021/01/24 01:17:05;;;;;;;32.88;15.85;;;;;;;3.04;74.00;99395.00;5085486;28;20052;-66
2021/01/24 01:19:31;;;;;;;29.45;15.43;;;;;;;3.12;74.28;99405.13;5083828;28;20040;-65
2021/01/24 01:21:56;;;;;;;27.67;14.63;;;;;;;3.19;73.82;99410.94;5077639;28;20143;-65
2021/01/24 01:24:22;;;;;;;30.95;14.77;;;;;;;3.19;74.21;99416.22;5089826;28;20043;-66
2021/01/24 01:26:47;;;;;;;34.58;15.18;;;;;;;3.02;73.81;99391.59;5078074;28;20480;-66
2021/01/24 01:29:13;;;;;;;30.67;14.77;;;;;;;3.16;74.16;99418.09;5084095;28;20079;-66
2021/01/24 01:31:38;;;;;;;26.98;14.35;;;;;;;3.19;73.86;99425.03;5084523;28;20446;-63
2021/01/24 01:34:04;;;;;;;31.38;15.00;;;;;;;3.04;74.18;99402.06;5077109;28;20032;-67
2021/01/24 01:36:30;;;;;;;28.48;14.07;;;;;;;3.12;73.42;99424.53;5089214;28;20482;-68
2021/01/24 01:38:57;;;;;;;26.33;14.45;;;;;;;3.15;73.58;99434.91;5078366;28;20522;-64
2021/01/24 01:41:31;;;;;;;26.75;14.10;;;;;;;3.15;73.71;99436.72;5082933;28;20058;-69
2021/01/24 01:43:57;;;;;;;31.80;15.48;;;;;;;2.86;73.79;99378.34;5087463;28;20047;-68
2021/01/24 01:46:28;;;;;;;29.13;15.05;;;;;;;3.08;73.99;99416.81;5076055;28;20028;-69
2021/01/24 01:48:54;;;;;;;32.92;15.43;;;;;;;3.15;73.67;99432.28;5086612;28;20509;-68
2021/01/24 01:51:20;;;;;;;28.10;14.48;;;;;;;3.14;73.81;99437.66;5081644;28;20092;-69
2021/01/24 01:53:46;;;;;;;31.98;15.40;;;;;;;3.13;73.77;99434.16;5079171;28;20623;-67
2021/01/24 01:56:13;;;;;;;33.90;16.05;;;;;;;2.86;73.93;99389.81;5089062;28;20044;-66
2021/01/24 01:58:39;;;;;;;31.58;15.10;;;;;;;3.10;73.90;99434.34;5075382;28;20032;-67
2021/01/24 02:01:10;;;;;;;32.60;15.70;;;;;;;3.17;74.53;99437.50;5084288;28;20043;-68
2021/01/24 02:04:01;;;;;;;32.70;15.75;;;;;;;3.18;73.85;99428.63;5084153;28;20036;-68
2021/01/24 02:06:32;;;;;;;29.95;13.98;;;;;;;3.22;73.88;99427.50;5074584;28;20051;-67
2021/01/24 02:09:10;;;;;;;32.15;14.77;;;;;;;3.05;74.09;99412.59;5085579;28;20120;-67
2021/01/24 02:12:03;;;;;;;32.55;16.17;;;;;;;3.16;74.03;99449.03;5083171;28;20036;-70
2021/01/24 02:14:32;;;;;;;27.70;14.93;;;;;;;3.06;74.03;99437.22;5067806;28;20087;-68
2021/01/24 02:17:02;;;;;;;42.08;16.45;;;;;;;3.09;74.04;99445.84;5064867;28;20032;-67
2021/01/24 02:19:55;;;;;;;34.58;16.38;;;;;;;3.14;74.52;99450.91;5081206;28;20407;-65
2021/01/24 02:22:23;;;;;;;38.10;16.88;;;;;;;3.05;74.17;99441.69;5088336;28;20059;-68
2021/01/24 02:24:55;;;;;;;37.65;16.98;;;;;;;3.05;73.92;99440.81;5077043;28;20063;-67
2021/01/24 02:27:41;;;;;;;39.95;17.05;;;;;;;3.12;74.41;99452.75;5081916;28;20082;-59
2021/01/24 02:30:18;;;;;;;35.28;16.52;;;;;;;3.11;74.13;99440.47;5087405;28;20052;-68
2021/01/24 02:32:46;;;;;;;37.45;17.38;;;;;;;3.09;74.16;99443.22;5050159;28;20045;-68
2021/01/24 02:35:12;;;;;;;40.97;16.92;;;;;;;3.11;74.25;99445.75;5067952;28;20028;-68
2021/01/24 02:37:40;;;;;;;34.20;16.27;;;;;;;3.06;73.45;99437.22;5079546;28;20416;-68
2021/01/24 02:40:08;;;;;;;37.72;17.95;;;;;;;2.90;73.53;99409.00;5087153;28;20602;-68
2021/01/24 02:42:35;;;;;;;44.97;18.00;;;;;;;3.04;73.77;99439.09;5074439;28;20032;-67
2021/01/24 02:45:00;;;;;;;43.58;19.85;;;;;;;3.06;74.10;99437.22;5084554;28;20504;-67
2021/01/24 02:47:28;;;;;;;45.75;18.67;;;;;;;2.98;74.10;99422.66;5081425;28;20042;-64
2021/01/24 02:49:55;;;;;;;38.47;18.95;;;;;;;3.11;73.76;99451.91;5077431;28;20434;-67
2021/01/24 02:52:22;;;;;;;40.58;18.80;;;;;;;3.13;74.33;99449.16;5087598;28;20360;-66
2021/01/24 02:54:48;;;;;;;46.97;19.15;;;;;;;3.16;74.11;99459.59;5076039;28;20024;-67
2021/01/24 02:57:14;;;;;;;45.67;19.13;;;;;;;3.13;73.53;99430.63;5082664;28;20077;-67
2021/01/24 02:59:40;;;;;;;47.50;19.40;;;;;;;3.14;74.05;99437.66;5082597;28;20039;-67
2021/01/24 03:02:06;;;;;;;43.33;20.48;;;;;;;3.13;73.67;99449.16;5074641;28;20450;-67
2021/01/24 03:04:31;;;;;;;47.40;20.10;;;;;;;3.13;73.42;99438.59;5087658;28;20032;-67
2021/01/24 03:06:57;;;;;;;52.33;20.63;;;;;;;2.91;73.97;99402.78;5076837;28;20616;-65
2021/01/24 03:09:22;;;;;;;53.47;20.17;;;;;;;3.09;73.51;99445.00;5080686;28;20454;-66
2021/01/24 03:11:50;;;;;;;48.55;21.75;;;;;;;3.06;73.65;99437.22;5083818;28;20038;-68
2021/01/24 03:14:20;;;;;;;49.88;21.35;;;;;;;3.09;74.07;99435.28;5073943;28;20036;-67
2021/01/24 03:16:50;;;;;;;44.50;19.23;;;;;;;3.11;73.87;99435.16;5085877;28;20233;-67
2021/01/24 03:19:21;;;;;;;50.58;19.58;;;;;;;2.90;73.92;99411.66;5079542;28;20043;-67
2021/01/24 03:21:49;;;;;;;49.65;20.45;;;;;;;3.12;73.53;99432.44;5077550;28;20040;-67
2021/01/24 03:24:17;;;;;;;67.22;20.45;;;;;;;3.09;73.64;99431.75;5087157;28;20077;-66
2021/01/24 03:26:44;;;;;;;49.85;19.88;;;;;;;3.15;73.25;99442.03;5074316;28;20024;-67
2021/01/24 03:29:12;;;;;;;53.28;19.60;;;;;;;3.10;73.29;99451.97;5082242;28;20056;-63
2021/01/24 03:31:40;;;;;;;49.40;18.30;;;;;;;3.08;73.26;99440.63;5082537;28;20487;-66
2021/01/24 03:34:13;;;;;;;61.05;18.92;;;;;;;2.81;73.46;99406.84;5074181;28;20443;-67
2021/01/24 03:36:38;;;;;;;55.70;19.13;;;;;;;3.05;73.73;99430.22;5057916;28;20069;-69
2021/01/24 03:39:04;;;;;;;45.72;20.15;;;;;;;2.92;73.48;99423.00;5082913;28;20028;-68
2021/01/24 03:41:29;;;;;;;59.15;19.77;;;;;;;2.97;73.63;99423.59;5081191;28;20431;-67
2021/01/24 03:43:55;;;;;;;46.53;20.52;;;;;;;3.01;73.99;99430.41;5075996;28;20510;-73
2021/01/24 03:46:20;;;;;;;48.08;19.65;;;;;;;3.04;74.07;99429.41;5086169;28;20508;-69
2021/01/24 03:48:46;;;;;;;52.42;18.80;;;;;;;3.06;73.46;99431.94;5085346;28;20040;-68
2021/01/24 03:51:12;;;;;;;49.75;19.95;;;;;;;3.06;73.52;99437.22;5078739;28;20071;-68
2021/01/24 03:53:38;;;;;;;48.10;18.10;;;;;;;3.07;73.12;99439.78;5077991;28;20064;-69
2021/01/24 03:56:03;;;;;;;47.40;20.15;;;;;;;2.95;73.67;99430.75;5085297;28;20044;-67
2021/01/24 03:58:29;;;;;;;54.00;19.77;;;;;;;3.05;72.93;99440.81;5073309;28;20040;-67
2021/01/24 04:00:54;;;;;;;47.53;20.98;;;;;;;3.00;73.21;99433.13;5084873;28;20092;-67
2021/01/24 04:03:20;;;;;;;46.05;19.75;;;;;;;2.90;73.57;99432.81;5079583;28;20038;-65
2021/01/24 04:05:45;;;;;;;48.78;19.17;;;;;;;2.80;73.51;99405.16;5075427;28;20040;-65
2021/01/24 04:08:13;;;;;;;55.80;19.65;;;;;;;2.97;73.47;99439.47;5085596;28;20032;-67
2021/01/24 04:10:39;;;;;;;45.28;19.25;;;;;;;2.76;73.43;99414.19;5057376;28;20059;-66
2021/01/24 04:13:04;;;;;;;59.65;18.00;;;;;;;2.96;72.95;99432.47;5082321;28;20129;-68
2021/01/24 04:15:30;;;;;;;39.40;17.27;;;;;;;2.96;73.38;99437.75;5080678;28;20028;-68
2021/01/24 04:17:55;;;;;;;48.42;17.00;;;;;;;2.86;73.42;99425.97;5075994;28;20098;-67
2021/01/24 04:20:21;;;;;;;45.53;17.20;;;;;;;2.96;73.28;99439.53;5086781;28;20036;-69
2021/01/24 04:22:49;;;;;;;53.47;17.63;;;;;;;2.62;72.37;99383.22;5074422;28;20033;-66
2021/01/24 04:25:16;;;;;;;44.55;19.60;;;;;;;2.79;73.05;99432.53;5085182;28;20025;-68
2021/01/24 04:27:42;;;;;;;38.75;16.83;;;;;;;2.82;73.50;99446.44;5084834;28;20181;-67
2021/01/24 04:30:08;;;;;;;49.25;19.95;;;;;;;2.84;73.52;99444.56;5077377;28;20056;-67
2021/01/24 04:32:34;;;;;;;50.03;19.05;;;;;;;2.88;72.90;99458.44;5090189;28;20476;-65
2021/01/24 04:34:59;;;;;;;43.78;17.80;;;;;;;2.85;72.90;99446.28;5071196;28;20135;-67
2021/01/24 04:37:24;;;;;;;45.75;18.40;;;;;;;2.85;72.70;99435.69;5084183;28;20043;-68
2021/01/24 04:39:50;;;;;;;49.42;18.50;;;;;;;2.78;72.68;99425.53;5087671;28;20085;-69
2021/01/24 04:42:15;;;;;;;51.22;16.15;;;;;;;2.38;73.19;99379.19;5070333;28;20546;-66
2021/01/24 04:44:42;;;;;;;42.20;16.88;;;;;;;2.66;73.26;99414.72;5069714;28;20061;-67
2021/01/24 04:47:09;;;;;;;36.95;16.77;;;;;;;2.66;72.92;99417.34;5090914;28;20036;-67
2021/01/24 04:49:35;;;;;;;34.45;16.60;;;;;;;2.79;73.23;99454.53;5081728;28;20028;-65
2021/01/24 04:52:02;;;;;;;36.75;16.13;;;;;;;2.78;73.87;99452.84;5088500;28;20055;-66
2021/01/24 04:54:29;;;;;;;35.45;15.55;;;;;;;2.80;73.15;99452.75;5067213;28;20033;-64
2021/01/24 04:56:55;;;;;;;42.53;16.88;;;;;;;2.55;73.43;99407.38;5087165;28;20035;-67
2021/01/24 04:59:21;;;;;;;39.10;14.75;;;;;;;3.05;71.85;99451.38;5083205;28;20027;-67
2021/01/24 05:01:48;;;;;;;48.65;16.38;;;;;;;3.02;71.91;99463.00;5079984;28;20047;-65
2021/01/24 05:04:13;;;;;;;45.50;15.23;;;;;;;3.02;71.67;99457.72;5089305;28;20016;-65
2021/01/24 05:06:39;;;;;;;39.88;15.20;;;;;;;2.80;71.72;99405.16;5076762;28;20536;-64
2021/01/24 05:09:04;;;;;;;34.08;15.75;;;;;;;3.09;71.71;99447.63;5086196;28;20610;-65
2021/01/24 05:11:31;;;;;;;40.08;15.13;;;;;;;3.13;71.69;99444.75;5083839;28;20149;-65
2021/01/24 05:14:13;;;;;;;40.85;15.48;;;;;;;3.22;71.68;99453.97;5078456;28;20028;-64
2021/01/24 05:16:40;;;;;;;38.97;16.15;;;;;;;3.26;71.54;99444.91;5060815;28;20226;-66
2021/01/24 05:19:07;;;;;;;33.45;15.60;;;;;;;3.05;71.26;99409.06;5085163;28;20043;-67
2021/01/24 05:21:34;;;;;;;40.83;14.95;;;;;;;3.37;70.90;99446.06;5083961;28;20036;-66
2021/01/24 05:23:59;;;;;;;31.10;15.13;;;;;;;3.41;71.43;99448.47;5077797;28;20163;-66
2021/01/24 05:26:25;;;;;;;40.30;14.95;;;;;;;3.45;70.99;99467.69;5089680;28;20477;-65
2021/01/24 05:28:50;;;;;;;34.70;15.07;;;;;;;3.45;70.91;99462.38;5078354;28;20036;-67
2021/01/24 05:31:21;;;;;;;61.47;15.93;;;;;;;3.50;70.32;99473.56;5083149;28;20094;-67
2021/01/24 05:33:46;;;;;;;33.33;14.65;;;;;;;3.41;70.93;99459.06;5085315;28;20396;-68
2021/01/24 05:36:13;;;;;;;38.08;14.18;;;;;;;3.40;70.49;99472.38;5075909;28;20036;-60
2021/01/24 05:38:39;;;;;;;41.13;13.60;;;;;;;3.35;70.74;99469.13;5088424;28;20029;-67
2021/01/24 05:41:07;;;;;;;35.20;13.45;;;;;;;3.37;71.01;99469.88;5079576;28;20038;-66
2021/01/24 05:43:37;;;;;;;37.25;14.20;;;;;;;3.35;71.48;99469.13;5081033;28;20032;-67
2021/01/24 05:46:04;;;;;;;30.60;14.57;;;;;;;3.37;70.70;99465.47;5087153;28;20088;-68
2021/01/24 05:48:30;;;;;;;37.33;15.25;;;;;;;3.45;70.86;99465.03;5087033;28;20058;-64
2021/01/24 05:50:56;;;;;;;32.35;13.77;;;;;;;3.49;70.66;99482.44;5077970;28;20028;-61
2021/01/24 05:53:22;;;;;;;38.25;14.15;;;;;;;3.50;70.02;99470.91;5082541;28;20094;-65
2021/01/24 05:55:48;;;;;;;34.40;12.52;;;;;;;3.42;70.68;99473.16;5085609;28;20373;-66
2021/01/24 05:58:22;;;;;;;40.72;13.18;;;;;;;3.28;70.63;99464.19;5075501;28;20059;-68
2021/01/24 06:00:50;;;;;;;49.75;12.00;;;;;;;3.39;70.12;99471.53;5086653;28;20097;-68
2021/01/24 06:03:17;;;;;;;38.97;13.90;;;;;;;3.33;70.37;99466.59;5081072;28;20095;-70
2021/01/24 06:05:43;;;;;;;37.03;13.98;;;;;;;3.21;70.39;99449.59;5079609;28;20040;-68
2021/01/24 06:08:10;;;;;;;40.25;14.73;;;;;;;3.26;70.55;99466.06;5088660;28;20032;-67
2021/01/24 06:10:38;;;;;;;35.28;15.10;;;;;;;2.73;70.71;99388.75;5058536;28;20044;-68
2021/01/24 06:13:05;;;;;;;31.58;14.35;;;;;;;3.29;70.71;99470.34;5084794;28;20563;-68
2021/01/24 06:15:35;;;;;;;44.70;14.57;;;;;;;3.34;70.59;99491.25;5083367;28;20032;-67
2021/01/24 06:18:10;;;;;;;41.05;14.98;;;;;;;3.34;70.83;99485.94;5076516;28;20131;-68
2021/01/24 06:20:41;;;;;;;40.45;14.32;;;;;;;3.39;70.57;99486.56;5087989;28;20100;-69
2021/01/24 06:23:20;;;;;;;37.78;14.20;;;;;;;3.35;70.67;99479.72;5079144;28;20063;-68
2021/01/24 06:25:49;;;;;;;43.58;14.95;;;;;;;3.34;70.69;99483.28;5078136;28;20035;-65
2021/01/24 06:28:28;;;;;;;41.13;15.63;;;;;;;2.96;70.87;99415.72;5088146;28;20056;-69
2021/01/24 06:30:54;;;;;;;32.90;14.70;;;;;;;3.38;70.51;99479.56;5077071;28;20052;-72
2021/01/24 06:33:22;;;;;;;30.45;14.70;;;;;;;3.34;70.71;99483.28;5082125;28;20044;-70
2021/01/24 06:36:02;;;;;;;33.10;15.02;;;;;;;3.40;71.02;99491.75;5084532;28;20466;-69
2021/01/24 06:38:33;;;;;;;44.25;14.10;;;;;;;3.43;70.52;99488.09;5074315;28;20029;-68
2021/01/24 06:41:06;;;;;;;31.80;15.38;;;;;;;3.45;70.30;99491.50;5084848;28;20047;-68
2021/01/24 06:43:50;;;;;;;40.35;15.68;;;;;;;3.47;71.00;99499.34;5082116;28;20040;-68
2021/01/24 06:46:36;;;;;;;46.17;15.45;;;;;;;3.36;71.25;99478.75;5073214;28;20072;-70
2021/01/24 06:49:02;;;;;;;39.85;16.05;;;;;;;3.48;70.29;99504.56;5083310;28;20041;-64
2021/01/24 06:51:41;;;;;;;38.35;16.05;;;;;;;3.48;70.91;99501.91;5081123;28;20040;-66
2021/01/24 06:54:16;;;;;;;35.13;14.75;;;;;;;3.52;70.61;99497.31;5074982;28;20471;-67
2021/01/24 06:56:43;;;;;;;30.00;15.55;;;;;;;3.51;70.40;99495.59;5058982;28;20449;-67
2021/01/24 06:59:11;;;;;;;29.20;15.60;;;;;;;3.51;70.92;99496.44;5080867;28;20345;-66
2021/01/24 07:01:41;;;;;;;30.45;15.60;;;;;;;3.61;70.98;99512.66;5082182;28;20491;-65
2021/01/24 07:04:25;;;;;;;35.85;15.68;;;;;;;3.69;70.75;99506.94;5074557;28;20090;-64
2021/01/24 07:06:54;;;;;;;28.25;15.30;;;;;;;3.70;70.50;99506.81;5061203;28;20039;-63
2021/01/24 07:09:25;;;;;;;30.27;15.15;;;;;;;3.73;70.48;99506.66;5080805;28;20533;-66
2021/01/24 07:11:56;;;;;;;32.67;16.17;;;;;;;3.77;70.74;99512.63;5084683;28;20089;-67
2021/01/24 07:17:11;;;;;;;28.40;15.90;;;;;;;3.85;70.23;99501.59;5083260;28;20047;-64
2021/01/24 07:19:40;;;;;;;32.25;16.80;;;;;;;3.86;70.42;99512.13;5082560;28;20032;-71
2021/01/24 07:22:06;;;;;;;30.17;15.77;;;;;;;3.52;69.95;99454.97;5074769;28;20086;-70
2021/01/24 07:24:32;;;;;;;34.20;15.75;;;;;;;3.81;70.11;99508.03;5086998;28;20496;-71
2021/01/24 07:26:58;;;;;;;32.13;16.20;;;;;;;3.81;70.14;99516.81;5076516;28;20036;-68
2021/01/24 07:29:28;;;;;;;32.17;15.95;;;;;;;3.82;70.00;99512.38;5080909;28;20057;-71
2021/01/24 07:31:54;;;;;;;31.67;17.38;;;;;;;3.75;70.13;99503.91;5084803;28;20044;-69
2021/01/24 07:34:26;;;;;;;32.40;18.17;;;;;;;3.83;70.47;99522.84;5073007;28;20052;-69
2021/01/24 07:36:52;;;;;;;41.08;19.17;;;;;;;3.80;70.18;99508.97;5084346;28;20032;-66
2021/01/24 07:39:19;;;;;;;40.90;17.88;;;;;;;3.82;69.84;99515.84;5079512;28;20048;-66
2021/01/24 07:41:45;;;;;;;30.15;17.92;;;;;;;3.79;69.84;99505.44;5076232;28;20048;-68
2021/01/24 07:44:11;;;;;;;33.67;17.25;;;;;;;3.75;70.55;99517.16;5085014;28;20060;-70
2021/01/24 07:46:37;;;;;;;30.20;16.95;;;;;;;3.78;69.97;99527.56;5055849;28;20078;-70
2021/01/24 07:49:03;;;;;;;30.90;15.63;;;;;;;3.79;69.97;99508.09;5081331;28;20717;-70
2021/01/24 07:51:28;;;;;;;27.75;15.18;;;;;;;3.66;69.69;99470.03;5079082;28;20055;-69
2021/01/24 07:53:55;;;;;;;29.45;15.43;;;;;;;3.72;69.94;99493.50;5074343;28;20040;-70
2021/01/24 07:56:20;;;;;;;29.25;15.25;;;;;;;3.76;69.86;99499.50;5084330;28;20034;-69
2021/01/24 07:58:47;;;;;;;32.58;15.85;;;;;;;3.85;69.58;99488.34;5074602;28;20040;-71
2021/01/24 08:01:13;;;;;;;33.75;16.15;;;;;;;3.65;68.98;99458.59;5081884;28;20037;-70
2021/01/24 08:03:41;;;;;;;26.00;15.38;;;;;;;3.83;69.57;99509.63;5082231;28;20119;-70
2021/01/24 08:06:07;;;;;;;28.33;14.60;;;;;;;3.85;69.45;99494.50;5073741;28;20078;-72
2021/01/24 08:08:41;;;;;;;30.02;14.27;;;;;;;3.84;68.97;99511.31;5086306;28;20510;-66
2021/01/24 08:11:08;;;;;;;27.40;14.35;;;;;;;3.21;69.34;99409.06;5068026;28;20029;-66
2021/01/24 08:13:35;;;;;;;24.25;14.05;;;;;;;3.76;69.72;99499.50;5062770;28;20518;-65
2021/01/24 08:16:05;;;;;;;25.30;14.13;;;;;;;3.80;69.34;99501.84;5062391;28;20056;-65
2021/01/24 08:18:34;;;;;;;25.17;14.00;;;;;;;3.82;69.66;99510.56;5064323;28;20508;-67
2021/01/24 08:21:01;;;;;;;25.52;14.60;;;;;;;3.88;69.57;99499.63;5061498;28;20504;-67
2021/01/24 08:23:28;;;;;;;26.20;14.77;;;;;;;3.88;69.46;99491.69;5062879;28;20033;-69
2021/01/24 08:25:54;;;;;;;28.85;14.30;;;;;;;3.93;69.27;99478.16;5061269;28;20029;-70
2021/01/24 08:28:20;;;;;;;30.00;14.18;;;;;;;4.08;68.96;99502.06;5078968;28;20040;-71
2021/01/24 08:30:46;;;;;;;26.30;14.15;;;;;;;4.09;69.67;99485.22;5064253;28;20127;-70
2021/01/24 08:33:13;;;;;;;26.65;14.90;;;;;;;4.04;69.53;99488.13;5060447;28;20044;-71
2021/01/24 08:35:39;;;;;;;24.98;13.77;;;;;;;4.05;69.65;99496.94;5066180;28;20123;-70
2021/01/24 08:38:05;;;;;;;29.70;15.05;;;;;;;3.68;69.20;99425.78;5074518;28;20081;-71
2021/01/24 08:40:35;;;;;;;27.15;14.02;;;;;;;4.02;69.84;99484.72;5079686;28;20032;-69
2021/01/24 08:43:02;;;;;;;26.73;14.45;;;;;;;4.04;69.10;99493.41;5076276;28;20028;-70
2021/01/24 08:45:28;;;;;;;25.30;13.68;;;;;;;3.96;68.09;99480.63;5072376;28;20106;-70
2021/01/24 08:48:04;;;;;;;26.75;14.30;;;;;;;3.97;69.27;99484.13;5077665;28;20100;-68
2021/01/24 08:50:32;;;;;;;25.13;13.77;;;;;;;3.78;69.21;99471.13;5080255;28;20036;-67
2021/01/24 08:52:59;;;;;;;27.88;13.13;;;;;;;3.93;68.97;99486.09;5079344;28;20035;-65
2021/01/24 08:55:25;;;;;;;23.75;12.70;;;;;;;3.95;68.98;99491.31;5085452;28;20059;-68
2021/01/24 08:57:52;;;;;;;21.35;11.18;;;;;;;4.08;69.08;99502.88;5073246;28;20020;-67
2021/01/24 09:00:18;;;;;;;21.30;12.90;;;;;;;3.98;69.06;99483.19;5081966;28;20110;-69
2021/01/24 09:02:44;;;;;;;25.63;14.18;;;;;;;4.03;69.02;99502.31;5079644;28;20032;-67
2021/01/24 09:05:11;;;;;;;24.45;14.07;;;;;;;4.04;68.56;99484.63;5071105;28;20500;-67
2021/01/24 09:07:55;;;;;;;25.55;13.65;;;;;;;3.95;69.10;99494.81;5079110;28;20037;-70
2021/01/24 09:10:23;;;;;;;24.58;13.80;;;;;;;3.83;69.07;99467.25;5083749;28;20510;-70
2021/01/24 09:12:51;;;;;;;22.02;12.98;;;;;;;3.91;68.91;99477.41;5083882;28;20039;-67
2021/01/24 09:15:19;;;;;;;23.13;13.48;;;;;;;4.05;68.76;99497.78;5077298;28;20028;-67
2021/01/24 09:17:44;;;;;;;25.45;14.50;;;;;;;4.11;68.41;99496.56;5089770;28;20067;-68
2021/01/24 09:20:10;;;;;;;24.05;13.63;;;;;;;4.11;69.30;99496.56;5078627;28;20027;-72
2021/01/24 09:22:36;;;;;;;25.67;14.63;;;;;;;4.12;68.64;99500.91;5085501;28;20050;-68
2021/01/24 09:25:04;;;;;;;28.38;15.00;;;;;;;4.09;68.37;99501.94;5087465;28;20042;-64
2021/01/24 09:27:30;;;;;;;32.15;13.63;;;;;;;4.06;68.58;99510.06;5074780;28;20032;-67
2021/01/24 09:29:55;;;;;;;27.92;14.10;;;;;;;4.07;68.77;99498.53;5088647;28;20056;-63
2021/01/24 09:32:21;;;;;;;26.98;13.50;;;;;;;4.10;68.79;99497.50;5080080;28;20093;-68
2021/01/24 09:34:47;;;;;;;27.58;13.52;;;;;;;4.06;69.24;99506.59;5079651;28;20036;-65
2021/01/24 09:37:12;;;;;;;25.23;14.25;;;;;;;4.09;68.84;99501.09;5087256;28;20110;-66
2021/01/24 09:39:38;;;;;;;28.98;14.90;;;;;;;4.15;68.83;99493.66;5074174;28;20109;-66
2021/01/24 09:42:04;;;;;;;29.15;15.02;;;;;;;4.19;69.04;99506.72;5086281;28;20037;-66
2021/01/24 09:44:29;;;;;;;30.40;15.13;;;;;;;4.26;68.57;99510.69;5081544;28;20398;-69
2021/01/24 09:46:55;;;;;;;32.20;16.42;;;;;;;4.27;68.39;99509.75;5079682;28;20032;-72
2021/01/24 09:49:20;;;;;;;30.45;15.80;;;;;;;4.25;68.35;99511.66;5083121;28;20090;-71
2021/01/24 09:51:46;;;;;;;32.20;16.40;;;;;;;4.19;68.54;99481.06;5072055;28;20465;-69
2021/01/24 09:54:14;;;;;;;31.92;16.42;;;;;;;4.25;68.55;99482.50;5072639;28;20400;-69
2021/01/24 09:56:40;;;;;;;34.75;16.08;;;;;;;4.34;68.17;99500.50;5072805;28;20044;-69
2021/01/24 09:59:05;;;;;;;37.00;18.00;;;;;;;4.20;68.35;99480.09;5072704;28;20041;-71
2021/01/24 10:01:31;;;;;;;34.55;17.95;;;;;;;4.35;68.26;99499.56;5072194;28;20110;-69
2021/01/24 10:03:56;;;;;;;34.40;16.67;;;;;;;4.41;68.90;99511.56;5072424;28;20115;-73
2021/01/24 10:06:22;;;;;;;34.88;16.58;;;;;;;4.42;68.58;99500.91;5071253;28;20454;-69
2021/01/24 10:08:48;;;;;;;29.75;14.93;;;;;;;4.47;68.54;99507.72;5053065;28;20029;-68
2021/01/24 10:11:14;;;;;;;27.67;14.63;;;;;;;4.43;67.86;99507.91;5048688;28;20500;-68
2021/01/24 10:13:40;;;;;;;29.50;13.88;;;;;;;4.44;68.31;99512.25;5057327;28;20043;-65
2021/01/24 10:16:07;;;;;;;30.10;14.50;;;;;;;4.44;68.18;99506.97;5066231;28;20427;-69
2021/01/24 10:18:33;;;;;;;29.38;14.52;;;;;;;4.35;67.99;99504.88;5063082;28;20450;-69
2021/01/24 10:20:58;;;;;;;31.52;14.75;;;;;;;4.41;68.02;99504.50;5066798;28;20043;-67
2021/01/24 10:23:24;;;;;;;31.98;15.30;;;;;;;4.47;67.82;99510.38;5069867;28;20475;-65
2021/01/24 10:25:54;;;;;;;30.40;15.90;;;;;;;4.41;68.42;99507.16;5070143;28;20036;-69
2021/01/24 10:28:20;;;;;;;30.95;15.35;;;;;;;4.47;68.73;99494.47;5069809;28;20033;-65
2021/01/24 10:30:46;;;;;;;28.70;15.02;;;;;;;4.50;67.87;99499.56;5071463;28;20088;-62
2021/01/24 10:33:13;;;;;;;28.25;15.82;;;;;;;4.55;67.90;99492.19;5071292;28;20083;-62
2021/01/24 10:35:39;;;;;;;29.95;14.88;;;;;;;4.58;68.01;99486.69;5071921;28;20412;-62
2021/01/24 10:38:05;;;;;;;28.95;15.35;;;;;;;4.64;67.98;99474.84;5071567;28;20086;-62
2021/01/24 10:40:31;;;;;;;27.92;15.20;;;;;;;4.68;68.03;99479.88;5071578;28;20039;-63
2021/01/24 10:42:57;;;;;;;28.65;14.68;;;;;;;4.22;67.71;99400.53;5071035;28;20028;-63
2021/01/24 10:45:23;;;;;;;31.58;16.67;;;;;;;4.71;68.06;99462.94;5071636;28;20504;-65
2021/01/24 10:47:50;;;;;;;29.35;15.45;;;;;;;4.81;67.34;99468.50;5071461;28;20036;-64
2021/01/24 10:50:15;;;;;;;30.10;16.20;;;;;;;4.74;67.10;99465.41;5070299;28;20113;-62
2021/01/24 10:52:41;;;;;;;26.83;14.48;;;;;;;4.85;67.11;99475.34;5071392;28;20476;-64
2021/01/24 10:55:07;;;;;;;27.48;14.50;;;;;;;4.71;67.28;99463.78;5071495;28;20074;-62
2021/01/24 10:57:32;;;;;;;26.13;13.82;;;;;;;4.68;67.84;99449.84;5070966;28;20102;-59
2021/01/24 10:59:58;;;;;;;30.35;14.68;;;;;;;4.69;67.45;99446.25;5069313;28;20032;-61
2021/01/24 11:02:23;;;;;;;27.48;14.55;;;;;;;4.84;67.92;99463.03;5069509;28;20523;-70
2021/01/24 11:04:49;;;;;;;29.40;16.02;;;;;;;4.90;67.61;99459.97;5071155;28;20031;-69
2021/01/24 11:07:16;;;;;;;29.33;15.20;;;;;;;4.84;67.56;99440.00;5070986;28;20573;-73
2021/01/24 11:09:43;;;;;;;32.90;16.95;;;;;;;4.99;67.36;99455.91;5071699;28;20040;-69
2021/01/24 11:12:09;;;;;;;35.88;17.98;;;;;;;4.81;66.86;99426.06;5070177;28;20050;-69
2021/01/24 11:14:35;;;;;;;33.60;17.42;;;;;;;4.78;67.35;99444.81;5071311;28;20036;-68
2021/01/24 11:17:00;;;;;;;39.45;19.80;;;;;;;4.70;67.80;99440.00;5069850;28;20596;-59
2021/01/24 11:19:27;;;;;;;37.47;19.08;;;;;;;4.71;67.35;99445.22;5071559;28;20487;-70
2021/01/24 11:21:52;;;;;;;35.35;18.25;;;;;;;4.71;67.11;99455.81;5070023;28;20036;-66
2021/01/24 11:24:18;;;;;;;33.33;17.95;;;;;;;4.70;67.60;99442.66;5060136;28;20445;-67
2021/01/24 11:26:43;;;;;;;36.38;18.55;;;;;;;4.77;67.31;99435.16;5051002;28;20049;-68
2021/01/24 11:29:09;;;;;;;37.70;19.02;;;;;;;4.61;67.32;99428.19;5050757;28;20045;-69